createdAt,value
2019-04-22T00:04:32.314Z,4.90
2019-04-22T00:09:51.477Z,4.90
2019-04-22T00:14:52.559Z,4.80
2019-04-22T00:20:06.064Z,4.40
2019-04-22T00:25:17.682Z,3.90
2019-04-22T00:30:16.509Z,4.30
2019-04-22T00:35:20.610Z,4.30
2019-04-22T00:40:32.294Z,4.10
2019-04-22T00:45:36.189Z,4.10
2019-04-22T00:50:42.018Z,4.40
2019-04-22T00:55:53.875Z,4.70
2019-04-22T01:01:01.657Z,5.20
2019-04-22T01:06:03.037Z,5.80
2019-04-22T01:11:13.180Z,6.00
2019-04-22T01:16:21.635Z,6.30
2019-04-22T01:21:27.499Z,6.30
2019-04-22T01:26:21.286Z,5.70
2019-04-22T01:31:19.124Z,4.90
2019-04-22T01:36:35.337Z,4.90
2019-04-22T01:41:55.106Z,4.70
2019-04-22T01:47:08.178Z,4.50
2019-04-22T01:57:20.806Z,4.60
2019-04-22T02:02:14.384Z,4.20
2019-04-22T02:07:19.375Z,4.10
2019-04-22T02:12:21.374Z,4.10
2019-04-22T02:17:32.817Z,4.10
2019-04-22T02:22:54.177Z,4.20
2019-04-22T02:27:43.202Z,4.10
2019-04-22T02:33:03.852Z,3.80
2019-04-22T02:38:02.036Z,3.90
2019-04-22T02:43:01.338Z,3.90
2019-04-22T02:48:18.367Z,3.90
2019-04-22T02:53:17.457Z,3.80
2019-04-22T02:58:16.842Z,3.90
2019-04-22T03:13:40.480Z,3.60
2019-04-22T03:18:59.426Z,3.20
2019-04-22T03:24:14.295Z,2.90
2019-04-22T03:34:22.617Z,2.50
2019-04-22T03:39:15.426Z,2.80
2019-04-22T03:49:23.057Z,2.00
2019-04-22T03:54:31.272Z,1.90
2019-04-22T03:59:29.677Z,2.20
2019-04-22T04:09:32.547Z,2.20
2019-04-22T04:14:50.733Z,2.40
2019-04-22T04:20:06.487Z,2.40
2019-04-22T04:30:05.525Z,2.70
2019-04-22T04:45:26.566Z,4.60
2019-04-22T04:50:12.155Z,5.30
2019-04-22T04:55:26.235Z,6.00
2019-04-22T05:00:37.298Z,6.70
2019-04-22T05:05:26.694Z,6.50
2019-04-22T05:20:55.533Z,9.10
2019-04-22T05:25:41.097Z,8.80
2019-04-22T05:30:47.320Z,10.10
2019-04-22T05:35:56.354Z,10.10
2019-04-22T05:41:02.693Z,10.90
2019-04-22T05:46:04.266Z,11.40
2019-04-22T05:51:09.771Z,12.10
2019-04-22T05:56:28.452Z,12.60
2019-04-22T06:01:40.345Z,13.30
2019-04-22T06:06:29.268Z,14.40
2019-04-22T06:11:33.550Z,14.00
2019-04-22T06:16:44.026Z,15.30
2019-04-22T06:21:50.039Z,14.50
2019-04-22T06:27:04.472Z,15.60
2019-04-22T06:32:17.486Z,16.70
2019-04-22T06:37:08.699Z,16.50
2019-04-22T06:42:08.926Z,15.00
2019-04-22T06:47:21.656Z,13.40
2019-04-22T06:52:17.782Z,12.50
2019-04-22T06:57:25.368Z,11.90
2019-04-22T07:02:32.154Z,11.20
2019-04-22T07:07:34.835Z,11.90
2019-04-22T07:12:42.632Z,11.60
2019-04-22T07:17:50.780Z,12.30
2019-04-22T07:22:58.673Z,12.40
2019-04-22T07:38:10.870Z,11.90
2019-04-22T07:43:11.638Z,11.90
2019-04-22T07:48:27.929Z,12.10
2019-04-22T07:53:23.287Z,11.80
2019-04-22T08:03:37.856Z,12.40
2019-04-22T08:08:35.604Z,11.90
2019-04-22T08:13:40.615Z,12.40
2019-04-22T08:18:47.324Z,12.40
2019-04-22T08:23:57.545Z,11.70
2019-04-22T08:29:02.341Z,11.80
2019-04-22T08:34:12.205Z,12.20
2019-04-22T08:39:15.455Z,12.40
2019-04-22T08:44:17.494Z,12.60
2019-04-22T08:49:30.666Z,12.40
2019-04-22T08:54:26.076Z,12.30
2019-04-22T08:59:31.524Z,13.00
2019-04-22T09:04:39.137Z,12.20
2019-04-22T09:09:44.462Z,12.20
2019-04-22T09:14:45.871Z,12.30
2019-04-22T09:19:55.902Z,12.30
2019-04-22T09:24:57.518Z,12.10
2019-04-22T09:30:10.240Z,12.60
2019-04-22T09:35:10.209Z,12.40
2019-04-22T09:40:15.584Z,12.10
2019-04-22T09:45:15.473Z,11.70
2019-04-22T09:50:33.216Z,11.90
2019-04-22T09:55:31.193Z,12.00
2019-04-22T10:00:46.178Z,12.20
2019-04-22T10:05:49.928Z,12.40
2019-04-22T10:11:00.785Z,12.70
2019-04-22T10:16:03.149Z,12.60
2019-04-22T10:21:00.740Z,11.60
2019-04-22T10:26:14.297Z,12.70
2019-04-22T10:31:21.904Z,12.30
2019-04-22T10:35:55.207Z,12.80
2019-04-22T10:41:00.828Z,13.20
2019-04-22T10:46:06.120Z,13.20
2019-04-22T10:51:10.656Z,12.20
2019-04-22T10:56:14.905Z,11.40
2019-04-22T11:01:18.687Z,11.50
2019-04-22T11:06:23.325Z,12.90
2019-04-22T11:11:38.468Z,13.30
2019-04-22T11:16:32.543Z,12.40
2019-04-22T11:21:36.279Z,13.10
2019-04-22T11:26:41.079Z,11.40
2019-04-22T11:31:46.345Z,12.50
2019-04-22T11:36:50.545Z,11.50
2019-04-22T11:41:55.945Z,11.20
2019-04-22T11:47:01.414Z,11.70
2019-04-22T11:52:07.310Z,11.70
2019-04-22T11:57:10.874Z,11.80
2019-04-22T12:02:17.668Z,11.50
2019-04-22T12:07:21.614Z,11.70
2019-04-22T12:12:25.630Z,12.30
2019-04-22T12:17:29.822Z,12.50
2019-04-22T12:22:33.948Z,12.00
2019-04-22T12:27:41.052Z,11.20
2019-04-22T12:32:45.546Z,10.90
2019-04-22T12:37:53.943Z,11.10
2019-04-22T12:42:55.454Z,12.20
2019-04-22T12:48:00.099Z,12.40
2019-04-22T12:53:10.461Z,11.40
2019-04-22T12:58:09.714Z,11.70
2019-04-22T13:03:13.781Z,12.30
2019-04-22T13:08:18.028Z,12.90
2019-04-22T13:13:23.016Z,12.30
2019-04-22T13:18:35.276Z,12.10
2019-04-22T13:23:32.162Z,12.10
2019-04-22T13:28:36.827Z,12.40
2019-04-22T13:33:41.072Z,12.00
2019-04-22T13:38:45.084Z,11.90
2019-04-22T13:43:49.294Z,12.50
2019-04-22T13:49:25.148Z,13.00
2019-04-22T13:59:13.617Z,11.70
2019-04-22T14:04:12.447Z,12.50
2019-04-22T14:09:18.168Z,12.90
2019-04-22T14:14:22.118Z,12.80
2019-04-22T14:19:29.832Z,12.90
2019-04-22T14:24:34.481Z,13.00
2019-04-22T14:29:39.660Z,13.10
2019-04-22T14:34:44.858Z,13.40
2019-04-22T14:39:49.116Z,13.40
2019-04-22T14:50:17.751Z,13.30
2019-04-22T14:55:14.951Z,13.70
2019-04-22T15:00:15.868Z,13.70
2019-04-22T15:05:19.622Z,13.70
2019-04-22T15:10:24.277Z,13.50
2019-04-22T15:15:31.189Z,13.70
2019-04-22T15:20:48.625Z,13.50
2019-04-22T15:25:50.731Z,13.40
2019-04-22T15:30:55.602Z,13.60
2019-04-22T15:35:59.275Z,13.80
2019-04-22T15:41:03.093Z,13.50
2019-04-22T15:46:07.661Z,13.60
2019-04-22T15:51:12.939Z,13.40
2019-04-22T15:56:16.860Z,13.50
2019-04-22T16:01:27.592Z,13.40
2019-04-22T16:06:26.240Z,13.50
2019-04-22T16:11:29.991Z,13.60
2019-04-22T16:16:34.783Z,13.60
2019-04-22T16:21:46.546Z,13.40
2019-04-22T16:26:46.597Z,13.40
2019-04-22T16:31:51.378Z,13.50
2019-04-22T16:36:56.613Z,13.40
2019-04-22T16:42:00.668Z,13.30
2019-04-22T16:47:05.821Z,13.30
2019-04-22T16:52:10.076Z,13.10
2019-04-22T16:57:15.663Z,13.10
2019-04-22T17:02:22.406Z,13.10
2019-04-22T17:07:26.509Z,13.10
2019-04-22T17:12:40.829Z,13.00
2019-04-22T17:17:36.208Z,12.80
2019-04-22T17:22:40.109Z,12.60
2019-04-22T17:27:43.888Z,12.50
2019-04-22T17:32:48.341Z,12.40
2019-04-22T17:38:01.744Z,12.40
2019-04-22T17:43:32.676Z,12.10
2019-04-22T17:48:23.973Z,12.00
2019-04-22T17:53:34.830Z,11.80
2019-04-22T17:58:43.573Z,12.00
2019-04-22T18:03:29.023Z,12.00
2019-04-22T18:08:45.247Z,11.90
2019-04-22T18:13:51.924Z,11.80
2019-04-22T18:19:00.642Z,11.80
2019-04-22T18:23:54.109Z,11.70
2019-04-22T18:29:07.500Z,11.60
2019-04-22T18:34:06.956Z,11.40
2019-04-22T18:39:22.622Z,11.40
2019-04-22T18:44:27.259Z,11.50
2019-04-22T18:49:28.020Z,11.40
2019-04-22T18:54:47.971Z,11.30
2019-04-22T18:59:34.634Z,11.40
2019-04-22T19:04:47.262Z,11.40
2019-04-22T19:10:10.576Z,11.20
2019-04-22T19:15:12.777Z,11.20
2019-04-22T19:20:15.510Z,11.30
2019-04-22T19:25:15.151Z,11.30
2019-04-22T19:30:22.330Z,11.10
2019-04-22T19:35:22.878Z,11.10
2019-04-22T19:40:50.523Z,11.10
2019-04-22T19:45:47.830Z,11.20
2019-04-22T19:50:58.880Z,11.10
2019-04-22T19:55:53.848Z,11.10
2019-04-22T20:01:08.883Z,11.20
2019-04-22T20:06:35.317Z,11.10
2019-04-22T20:11:38.577Z,11.10
2019-04-22T20:16:37.454Z,10.80
2019-04-22T20:21:51.798Z,10.90
2019-04-22T20:26:59.479Z,10.90
2019-04-22T20:31:59.184Z,10.80
2019-04-22T20:37:11.334Z,10.60
2019-04-22T20:42:23.392Z,10.40
2019-04-22T20:47:13.640Z,10.50
2019-04-22T20:52:26.455Z,10.40
2019-04-22T20:57:32.094Z,10.50
2019-04-22T21:02:23.730Z,10.40
2019-04-22T21:07:34.419Z,10.30
2019-04-22T21:12:35.452Z,10.40
2019-04-22T21:17:48.856Z,10.40
2019-04-22T21:22:58.790Z,10.40
2019-04-22T21:28:03.062Z,10.40
2019-04-22T21:32:58.013Z,10.00
2019-04-22T21:38:19.626Z,10.10
2019-04-22T21:43:18.514Z,10.00
2019-04-22T21:48:28.112Z,10.00
2019-04-22T21:53:33.313Z,10.10
2019-04-22T21:58:38.256Z,10.00
2019-04-22T22:03:42.916Z,10.20
2019-04-22T22:08:48.999Z,10.10
2019-04-22T22:13:51.977Z,10.30
2019-04-22T22:19:00.971Z,10.20
2019-04-22T22:24:05.639Z,10.40
2019-04-22T22:29:10.170Z,10.40
2019-04-22T22:34:13.648Z,10.20
2019-04-22T22:39:07.619Z,10.00
2019-04-22T22:44:11.552Z,10.00
2019-04-22T22:49:28.681Z,10.00
2019-04-22T22:54:35.003Z,9.80
2019-04-22T22:59:40.265Z,9.90
2019-04-22T23:04:45.406Z,9.90
2019-04-22T23:09:48.941Z,9.90
2019-04-22T23:14:54.135Z,9.80
2019-04-22T23:19:46.031Z,9.70
2019-04-22T23:25:21.451Z,9.60
2019-04-22T23:30:06.677Z,9.40
2019-04-22T23:35:23.104Z,9.30
2019-04-22T23:40:35.802Z,9.10
2019-04-22T23:45:43.370Z,9.00
2019-04-22T23:50:45.672Z,9.00
2019-04-22T23:55:50.668Z,8.80
